createdAt,value
2022-08-19T00:02:04.410Z,26.28
2022-08-19T00:04:39.540Z,26.26
2022-08-19T00:07:08.327Z,26.26
2022-08-19T00:09:37.086Z,26.25
2022-08-19T00:12:07.459Z,26.24
2022-08-19T00:14:45.485Z,26.22
2022-08-19T00:17:13.922Z,26.18
2022-08-19T00:19:42.198Z,26.15
2022-08-19T00:22:13.898Z,26.12
2022-08-19T00:24:50.689Z,26.11
2022-08-19T00:27:26.382Z,26.09
2022-08-19T00:29:57.053Z,26.07
2022-08-19T00:32:26.298Z,26.05
2022-08-19T00:34:57.777Z,26.02
2022-08-19T00:37:33.255Z,25.99
2022-08-19T00:40:12.671Z,25.96
2022-08-19T00:42:41.503Z,25.93
2022-08-19T00:45:15.031Z,25.91
2022-08-19T00:47:43.359Z,25.90
2022-08-19T00:50:17.129Z,25.88
2022-08-19T00:52:51.230Z,25.86
2022-08-19T00:55:23.437Z,25.82
2022-08-19T00:57:58.003Z,25.80
2022-08-19T01:00:28.729Z,25.79
2022-08-19T01:03:00.389Z,25.78
2022-08-19T01:05:30.631Z,25.77
2022-08-19T01:08:00.857Z,25.75
2022-08-19T01:10:36.139Z,25.72
2022-08-19T01:13:11.652Z,25.69
2022-08-19T01:15:52.559Z,25.66
2022-08-19T01:23:19.154Z,25.60
2022-08-19T01:25:52.761Z,25.58
2022-08-19T01:28:39.956Z,25.54
2022-08-19T01:31:32.805Z,25.44
2022-08-19T01:34:05.572Z,25.31
2022-08-19T01:36:43.086Z,25.48
2022-08-19T01:39:27.668Z,26.52
2022-08-19T01:42:14.420Z,27.39
2022-08-19T01:44:46.852Z,27.70
2022-08-19T01:47:32.124Z,27.27
2022-08-19T01:50:21.621Z,26.79
2022-08-19T01:53:08.612Z,26.34
2022-08-19T01:56:50.233Z,26.33
2022-08-19T01:59:22.398Z,27.47
2022-08-19T02:02:04.899Z,28.13
2022-08-19T02:04:57.293Z,28.35
2022-08-19T02:12:10.231Z,26.87
2022-08-19T02:15:25.361Z,26.38
2022-08-19T02:19:33.998Z,26.07
2022-08-19T02:22:22.290Z,25.76
2022-08-19T02:26:07.046Z,25.98
2022-08-19T02:28:55.303Z,27.31
2022-08-19T02:35:15.551Z,27.88
2022-08-19T02:36:26.893Z,27.92
2022-08-19T02:38:47.052Z,27.21
2022-08-19T02:41:53.017Z,26.56
2022-08-19T02:44:31.119Z,26.25
2022-08-19T02:47:00.532Z,25.96
2022-08-19T02:49:29.077Z,25.71
2022-08-19T02:52:03.957Z,25.51
2022-08-19T02:54:33.971Z,25.34
2022-08-19T02:57:02.382Z,25.38
2022-08-19T02:59:34.825Z,26.33
2022-08-19T03:02:03.223Z,27.08
2022-08-19T03:04:36.075Z,26.80
2022-08-19T03:07:10.903Z,26.26
2022-08-19T03:09:41.154Z,25.85
2022-08-19T03:12:12.215Z,25.57
2022-08-19T03:14:43.977Z,25.36
2022-08-19T03:17:21.362Z,25.19
2022-08-19T03:20:06.283Z,25.03
2022-08-19T03:25:58.233Z,26.44
2022-08-19T03:28:57.812Z,27.06
2022-08-19T03:31:45.589Z,26.56
2022-08-19T03:34:30.542Z,26.01
2022-08-19T03:37:13.413Z,25.63
2022-08-19T03:39:48.863Z,25.37
2022-08-19T03:42:38.826Z,25.15
2022-08-19T03:45:11.651Z,24.95
2022-08-19T03:47:41.945Z,25.02
2022-08-19T03:50:10.641Z,25.94
2022-08-19T03:52:40.640Z,26.75
2022-08-19T03:55:22.878Z,27.05
2022-08-19T03:57:59.265Z,26.60
2022-08-19T04:00:30.352Z,26.09
2022-08-19T04:03:05.315Z,25.74
2022-08-19T04:05:38.552Z,25.47
2022-08-19T04:08:14.306Z,25.28
2022-08-19T04:10:44.665Z,25.12
2022-08-19T04:13:20.679Z,24.98
2022-08-19T04:15:49.193Z,25.12
2022-08-19T04:18:19.315Z,26.03
2022-08-19T04:20:53.361Z,26.82
2022-08-19T04:23:33.221Z,27.19
2022-08-19T04:26:02.339Z,26.80
2022-08-19T04:28:33.917Z,26.35
2022-08-19T04:31:02.299Z,26.00
2022-08-19T04:33:31.526Z,25.73
2022-08-19T04:35:59.825Z,25.53
2022-08-19T04:38:28.134Z,25.37
2022-08-19T04:41:15.139Z,25.23
2022-08-19T04:43:49.942Z,25.10
2022-08-19T04:46:38.172Z,25.00
2022-08-19T04:49:13.219Z,25.29
2022-08-19T04:51:46.506Z,26.35
2022-08-19T04:54:23.925Z,26.96
2022-08-19T04:57:10.768Z,26.66
2022-08-19T04:59:40.175Z,26.25
2022-08-19T05:02:09.930Z,25.96
2022-08-19T05:04:40.344Z,25.76
2022-08-19T05:07:10.999Z,25.61
2022-08-19T05:09:58.111Z,25.49
2022-08-19T05:12:29.143Z,25.39
2022-08-19T05:14:59.045Z,25.27
2022-08-19T05:17:29.677Z,25.17
2022-08-19T05:20:18.440Z,25.29
2022-08-19T05:22:48.490Z,26.30
2022-08-19T05:25:20.627Z,27.09
2022-08-19T05:27:50.362Z,27.49
2022-08-19T05:30:30.222Z,27.14
2022-08-19T05:33:10.625Z,26.63
2022-08-19T05:35:40.248Z,26.32
2022-08-19T05:38:09.329Z,26.08
2022-08-19T05:40:38.178Z,25.88
2022-08-19T05:43:09.178Z,25.73
2022-08-19T05:45:41.433Z,25.59
2022-08-19T05:48:14.930Z,25.49
2022-08-19T05:50:47.450Z,25.44
2022-08-19T05:53:17.472Z,25.38
2022-08-19T05:55:46.014Z,25.57
2022-08-19T05:58:14.371Z,26.58
2022-08-19T06:00:46.920Z,27.46
2022-08-19T06:03:15.019Z,27.85
2022-08-19T06:05:49.708Z,27.53
2022-08-19T06:08:34.234Z,27.10
2022-08-19T06:11:33.977Z,26.78
2022-08-19T06:14:09.641Z,26.56
2022-08-19T06:16:46.961Z,26.45
2022-08-19T06:19:18.238Z,26.36
2022-08-19T06:21:48.824Z,26.31
2022-08-19T06:24:22.321Z,26.28
2022-08-19T06:26:58.012Z,26.25
2022-08-19T06:29:34.827Z,26.24
2022-08-19T06:32:04.519Z,26.24
2022-08-19T06:34:36.519Z,26.29
2022-08-19T06:37:06.798Z,26.37
2022-08-19T06:39:42.075Z,26.45
2022-08-19T06:42:12.854Z,26.54
2022-08-19T06:44:48.841Z,26.64
2022-08-19T06:47:23.572Z,26.75
2022-08-19T06:50:05.376Z,26.89
2022-08-19T06:52:36.772Z,27.04
2022-08-19T06:55:07.108Z,27.15
2022-08-19T06:57:38.238Z,27.26
2022-08-19T07:00:12.302Z,27.36
2022-08-19T07:02:44.719Z,27.46
2022-08-19T07:05:18.087Z,27.49
2022-08-19T07:07:48.412Z,27.54
2022-08-19T07:10:20.202Z,27.57
2022-08-19T07:12:51.377Z,27.63
2022-08-19T07:15:22.465Z,27.72
2022-08-19T07:17:52.609Z,27.80
2022-08-19T07:20:20.949Z,27.86
2022-08-19T07:22:49.201Z,27.92
2022-08-19T07:25:20.470Z,27.97
2022-08-19T07:27:54.954Z,28.02
2022-08-19T07:30:29.375Z,28.12
2022-08-19T07:33:00.738Z,28.25
2022-08-19T07:35:33.241Z,28.36
2022-08-19T07:38:03.624Z,28.49
2022-08-19T07:40:33.640Z,28.59
2022-08-19T07:43:01.818Z,28.67
2022-08-19T07:45:30.843Z,28.75
2022-08-19T07:47:59.574Z,28.86
2022-08-19T07:50:28.745Z,28.98
2022-08-19T07:52:58.063Z,29.08
2022-08-19T07:55:42.086Z,29.17
2022-08-19T07:58:16.389Z,29.29
2022-08-19T08:00:45.923Z,29.36
2022-08-19T08:03:17.453Z,29.38
2022-08-19T08:06:04.780Z,29.39
2022-08-19T08:08:52.793Z,29.46
2022-08-19T08:11:24.090Z,29.54
2022-08-19T08:14:00.963Z,29.66
2022-08-19T08:16:39.563Z,29.84
2022-08-19T08:19:20.714Z,30.02
2022-08-19T08:21:57.161Z,30.19
2022-08-19T08:24:31.849Z,30.36
2022-08-19T08:27:01.702Z,30.57
2022-08-19T08:29:44.303Z,30.77
2022-08-19T08:32:16.480Z,30.98
2022-08-19T08:34:47.450Z,31.15
2022-08-19T08:37:21.915Z,31.31
2022-08-19T08:39:50.960Z,31.36
2022-08-19T08:42:29.286Z,31.31
2022-08-19T08:45:17.015Z,31.27
2022-08-19T08:48:32.326Z,31.30
2022-08-19T08:51:03.330Z,31.33
2022-08-19T08:53:41.415Z,31.34
2022-08-19T08:56:17.122Z,31.29
2022-08-19T08:59:14.656Z,31.25
2022-08-19T09:01:42.875Z,31.26
2022-08-19T09:04:19.294Z,31.33
2022-08-19T09:07:18.418Z,31.41
2022-08-19T09:10:44.050Z,31.47
2022-08-19T09:13:47.562Z,31.54
2022-08-19T09:16:27.927Z,31.58
2022-08-19T09:19:02.748Z,31.68
2022-08-19T09:21:33.480Z,31.85
2022-08-19T09:24:07.862Z,31.98
2022-08-19T09:26:47.651Z,32.06
2022-08-19T09:29:22.517Z,32.14
2022-08-19T09:31:51.188Z,32.24
2022-08-19T09:34:22.129Z,32.36
2022-08-19T09:36:54.799Z,32.48
2022-08-19T09:39:23.210Z,32.62
2022-08-19T09:41:54.035Z,32.76
2022-08-19T09:44:22.184Z,32.89
2022-08-19T09:46:50.516Z,32.92
2022-08-19T09:49:22.901Z,32.91
2022-08-19T09:51:57.355Z,32.95
2022-08-19T09:54:29.421Z,33.07
2022-08-19T09:57:01.314Z,33.26
2022-08-19T09:59:34.937Z,33.48
2022-08-19T10:02:10.824Z,33.67
2022-08-19T10:04:58.330Z,33.78
2022-08-19T10:07:36.195Z,33.90
2022-08-19T10:10:07.274Z,34.07
2022-08-19T10:12:36.650Z,34.18
2022-08-19T10:15:07.237Z,34.25
2022-08-19T10:17:36.063Z,34.25
2022-08-19T10:20:05.813Z,34.34
2022-08-19T10:22:36.741Z,34.46
2022-08-19T10:25:06.358Z,34.59
2022-08-19T10:27:34.436Z,34.69
2022-08-19T10:30:04.594Z,34.69
2022-08-19T10:32:39.577Z,34.64
2022-08-19T10:35:21.918Z,34.60
2022-08-19T10:37:57.615Z,34.58
2022-08-19T10:40:31.796Z,34.54
2022-08-19T10:43:00.545Z,34.43
2022-08-19T10:45:29.846Z,34.33
2022-08-19T10:47:57.949Z,34.34
2022-08-19T10:51:01.369Z,34.38
2022-08-19T10:53:31.516Z,34.40
2022-08-19T10:56:18.353Z,34.37
2022-08-19T10:58:49.834Z,34.36
2022-08-19T11:01:19.340Z,34.42
2022-08-19T11:03:47.884Z,34.49
2022-08-19T11:06:16.007Z,34.60
2022-08-19T11:08:46.032Z,34.74
2022-08-19T11:11:14.312Z,34.85
2022-08-19T11:13:46.983Z,34.93
2022-08-19T11:16:20.439Z,34.96
2022-08-19T11:18:59.489Z,34.98
2022-08-19T11:21:37.359Z,34.97
2022-08-19T11:24:13.937Z,35.06
2022-08-19T11:26:45.073Z,35.26
2022-08-19T11:29:14.355Z,35.42
2022-08-19T11:31:45.500Z,35.54
2022-08-19T11:34:22.099Z,35.73
2022-08-19T11:36:54.108Z,35.84
2022-08-19T11:39:23.387Z,35.82
2022-08-19T11:41:52.852Z,35.85
2022-08-19T11:44:21.005Z,35.93
2022-08-19T11:46:49.762Z,36.00
2022-08-19T11:49:20.352Z,36.02
2022-08-19T11:51:53.800Z,36.00
2022-08-19T11:54:23.107Z,35.97
2022-08-19T11:56:51.184Z,35.87
2022-08-19T11:59:19.227Z,35.69
2022-08-19T12:01:48.175Z,35.53
2022-08-19T12:04:17.309Z,35.38
2022-08-19T12:06:47.462Z,35.23
2022-08-19T12:09:16.563Z,35.05
2022-08-19T12:11:44.893Z,34.91
2022-08-19T12:14:15.073Z,34.78
2022-08-19T12:16:51.408Z,34.77
2022-08-19T12:19:22.331Z,34.74
2022-08-19T12:21:52.220Z,34.62
2022-08-19T12:24:24.294Z,34.51
2022-08-19T12:26:56.505Z,34.34
2022-08-19T12:29:33.955Z,34.30
2022-08-19T12:32:03.754Z,34.40
2022-08-19T12:34:38.253Z,34.62
2022-08-19T12:37:09.716Z,34.87
2022-08-19T12:39:41.044Z,35.05
2022-08-19T12:42:11.300Z,35.17
2022-08-19T12:44:43.576Z,35.19
2022-08-19T12:47:16.104Z,35.17
2022-08-19T12:49:53.365Z,35.14
2022-08-19T12:52:25.896Z,35.25
2022-08-19T12:54:56.381Z,35.52
2022-08-19T12:57:32.897Z,35.71
2022-08-19T13:00:05.786Z,35.82
2022-08-19T13:02:38.496Z,35.90
2022-08-19T13:05:10.154Z,36.00
2022-08-19T13:07:41.896Z,36.11
2022-08-19T13:10:13.016Z,36.25
2022-08-19T13:12:42.292Z,36.35
2022-08-19T13:15:11.556Z,36.46
2022-08-19T13:17:40.980Z,36.58
2022-08-19T13:20:11.371Z,36.67
2022-08-19T13:22:40.083Z,36.80
2022-08-19T13:25:11.120Z,36.85
2022-08-19T13:27:40.602Z,36.84
2022-08-19T13:30:29.451Z,36.85
2022-08-19T13:33:17.208Z,36.72
2022-08-19T13:35:58.305Z,36.44
2022-08-19T13:38:26.970Z,36.01
2022-08-19T13:40:56.279Z,35.56
2022-08-19T13:43:33.921Z,35.10
2022-08-19T13:46:10.726Z,34.77
2022-08-19T13:48:39.976Z,34.48
2022-08-19T13:51:13.703Z,34.19
2022-08-19T13:53:47.871Z,33.92
2022-08-19T13:56:24.161Z,33.69
2022-08-19T13:58:59.390Z,33.45
2022-08-19T14:01:28.434Z,33.21
2022-08-19T14:03:56.533Z,32.96
2022-08-19T14:06:24.670Z,32.70
2022-08-19T14:08:53.751Z,32.48
2022-08-19T14:11:24.075Z,32.32
2022-08-19T14:13:52.428Z,32.19
2022-08-19T14:16:23.182Z,32.09
2022-08-19T14:18:51.238Z,32.00
2022-08-19T14:21:26.409Z,31.92
2022-08-19T14:23:54.927Z,31.80
2022-08-19T14:26:26.032Z,31.67
2022-08-19T14:28:58.327Z,31.55
2022-08-19T14:31:31.159Z,31.44
2022-08-19T14:34:02.642Z,31.33
2022-08-19T14:36:33.758Z,31.20
2022-08-19T14:39:05.580Z,31.07
2022-08-19T14:41:34.792Z,30.95
2022-08-19T14:44:03.352Z,30.82
2022-08-19T14:46:31.718Z,30.69
2022-08-19T14:49:00.360Z,30.55
2022-08-19T14:51:29.168Z,30.46
2022-08-19T14:53:57.641Z,30.42
2022-08-19T14:56:29.426Z,30.39
2022-08-19T14:59:01.885Z,30.36
2022-08-19T15:01:31.484Z,30.33
2022-08-19T15:03:59.512Z,30.29
2022-08-19T15:06:30.394Z,30.24
2022-08-19T15:09:03.892Z,30.21
2022-08-19T15:11:33.744Z,30.18
2022-08-19T15:14:02.617Z,30.16
2022-08-19T15:16:30.605Z,30.12
2022-08-19T15:19:00.734Z,30.08
2022-08-19T15:21:29.810Z,30.04
2022-08-19T15:23:59.225Z,30.01
2022-08-19T15:26:32.982Z,30.00
2022-08-19T15:29:03.153Z,29.96
2022-08-19T15:31:37.953Z,29.90
2022-08-19T15:34:06.956Z,29.84
2022-08-19T15:36:37.614Z,29.78
2022-08-19T15:39:31.703Z,29.71
2022-08-19T15:42:00.830Z,29.65
2022-08-19T15:44:30.292Z,29.62
2022-08-19T15:46:58.525Z,29.63
2022-08-19T15:49:26.523Z,29.65
2022-08-19T15:51:57.749Z,29.67
2022-08-19T15:54:25.885Z,29.69
2022-08-19T15:57:12.719Z,29.74
2022-08-19T16:00:02.597Z,29.81
2022-08-19T16:02:53.686Z,29.90
2022-08-19T16:05:44.221Z,30.21
2022-08-19T16:08:12.584Z,31.15
2022-08-19T16:10:43.380Z,32.28
2022-08-19T16:13:11.809Z,33.35
2022-08-19T16:15:43.854Z,34.18
2022-08-19T16:18:12.397Z,34.83
2022-08-19T16:20:41.088Z,35.04
2022-08-19T16:23:09.138Z,34.94
2022-08-19T16:25:39.435Z,34.67
2022-08-19T16:28:09.542Z,34.55
2022-08-19T16:30:42.930Z,35.17
2022-08-19T16:33:22.706Z,36.22
2022-08-19T16:35:56.106Z,37.19
2022-08-19T16:38:29.075Z,38.00
2022-08-19T16:41:00.551Z,38.57
2022-08-19T16:43:30.958Z,38.75
2022-08-19T16:45:59.770Z,38.36
2022-08-19T16:48:30.344Z,37.63
2022-08-19T16:50:59.903Z,36.85
2022-08-19T16:53:32.353Z,36.19
2022-08-19T16:56:10.067Z,35.56
2022-08-19T16:58:38.192Z,35.10
2022-08-19T17:01:13.565Z,34.71
2022-08-19T17:03:41.873Z,34.30
2022-08-19T17:06:20.474Z,33.88
2022-08-19T17:08:54.076Z,33.41
2022-08-19T17:11:24.480Z,33.01
2022-08-19T17:13:54.153Z,32.65
2022-08-19T17:16:25.620Z,32.31
2022-08-19T17:18:55.401Z,32.01
2022-08-19T17:21:32.201Z,31.71
2022-08-19T17:24:01.223Z,31.39
2022-08-19T17:26:31.250Z,31.05
2022-08-19T17:28:59.727Z,30.74
2022-08-19T17:31:30.698Z,30.49
2022-08-19T17:33:59.919Z,30.25
2022-08-19T17:36:31.907Z,30.05
2022-08-19T17:39:01.201Z,29.87
2022-08-19T17:41:30.418Z,29.74
2022-08-19T17:43:58.547Z,29.63
2022-08-19T17:46:26.829Z,29.52
2022-08-19T17:48:57.636Z,29.43
2022-08-19T17:51:33.461Z,29.30
2022-08-19T17:54:02.351Z,29.18
2022-08-19T17:56:30.829Z,29.06
2022-08-19T17:59:00.760Z,28.91
2022-08-19T18:01:43.941Z,28.76
2022-08-19T18:04:20.241Z,28.58
2022-08-19T18:06:53.225Z,28.42
2022-08-19T18:09:41.192Z,28.27
2022-08-19T18:12:17.065Z,28.15
2022-08-19T18:14:47.933Z,28.05
2022-08-19T18:17:19.584Z,27.98
2022-08-19T18:19:48.217Z,27.89
2022-08-19T18:22:29.488Z,27.81
2022-08-19T18:24:58.949Z,27.73
2022-08-19T18:27:28.521Z,27.66
2022-08-19T18:29:59.807Z,27.59
2022-08-19T18:32:34.330Z,27.52
2022-08-19T18:35:10.155Z,27.45
2022-08-19T18:37:41.204Z,27.39
2022-08-19T18:40:31.154Z,27.34
2022-08-19T18:43:12.810Z,27.28
2022-08-19T18:46:01.466Z,27.22
2022-08-19T18:48:50.017Z,27.16
2022-08-19T18:51:19.192Z,27.11
2022-08-19T18:53:51.202Z,27.06
2022-08-19T18:56:32.434Z,27.02
2022-08-19T18:59:01.708Z,26.99
2022-08-19T19:01:38.883Z,26.96
2022-08-19T19:04:13.459Z,26.92
2022-08-19T19:06:42.745Z,26.91
2022-08-19T19:09:14.419Z,26.88
2022-08-19T19:11:47.383Z,26.88
2022-08-19T19:14:45.647Z,26.87
2022-08-19T19:17:14.251Z,26.86
2022-08-19T19:19:42.999Z,26.86
2022-08-19T19:22:14.455Z,26.86
2022-08-19T19:24:54.145Z,26.87
2022-08-19T19:27:22.938Z,26.87
2022-08-19T19:30:01.653Z,26.86
2022-08-19T19:32:39.203Z,26.86
2022-08-19T19:35:10.699Z,26.86
2022-08-19T19:37:39.922Z,26.85
2022-08-19T19:40:08.539Z,26.85
2022-08-19T19:42:36.681Z,26.82
2022-08-19T19:45:06.965Z,26.80
2022-08-19T19:47:37.504Z,26.77
2022-08-19T19:50:16.011Z,26.75
2022-08-19T19:52:48.749Z,26.73
2022-08-19T19:55:23.426Z,26.72
2022-08-19T19:57:54.366Z,26.69
2022-08-19T20:00:22.896Z,26.66
2022-08-19T20:02:53.061Z,26.63
2022-08-19T20:05:23.460Z,26.59
2022-08-19T20:08:13.839Z,26.57
2022-08-19T20:10:45.933Z,26.52
2022-08-19T20:13:15.713Z,26.47
2022-08-19T20:15:43.924Z,26.45
2022-08-19T20:18:14.553Z,26.44
2022-08-19T20:20:46.827Z,26.42
2022-08-19T20:23:15.112Z,26.37
2022-08-19T20:25:43.580Z,26.33
2022-08-19T20:28:14.599Z,26.30
2022-08-19T20:30:48.053Z,26.28
2022-08-19T20:33:19.578Z,26.28
2022-08-19T20:35:49.071Z,26.27
2022-08-19T20:38:17.263Z,26.27
2022-08-19T20:40:45.500Z,26.26
2022-08-19T20:43:15.415Z,26.24
2022-08-19T20:45:47.055Z,26.23
2022-08-19T20:48:15.142Z,26.22
2022-08-19T20:50:43.151Z,26.20
2022-08-19T20:53:19.256Z,26.18
2022-08-19T20:55:52.700Z,26.17
2022-08-19T20:58:22.619Z,26.14
2022-08-19T21:00:53.172Z,26.11
2022-08-19T21:03:26.224Z,26.09
2022-08-19T21:05:55.932Z,26.07
2022-08-19T21:08:24.926Z,26.05
2022-08-19T21:10:57.501Z,26.03
2022-08-19T21:13:26.168Z,26.03
2022-08-19T21:15:57.744Z,26.04
2022-08-19T21:18:27.030Z,26.28
2022-08-19T21:20:56.057Z,27.23
2022-08-19T21:23:28.900Z,28.07
2022-08-19T21:26:00.575Z,28.44
2022-08-19T21:28:35.003Z,28.11
2022-08-19T21:31:10.457Z,27.67
2022-08-19T21:33:40.033Z,27.36
2022-08-19T21:36:11.288Z,27.13
2022-08-19T21:38:41.392Z,26.96
2022-08-19T21:41:09.607Z,26.80
2022-08-19T21:43:41.106Z,26.65
2022-08-19T21:46:09.835Z,26.50
2022-08-19T21:48:38.462Z,26.38
2022-08-19T21:51:06.860Z,26.30
2022-08-19T21:53:37.803Z,26.19
2022-08-19T21:56:06.885Z,26.08
2022-08-19T21:58:37.962Z,25.98
2022-08-19T22:01:08.295Z,25.87
2022-08-19T22:03:38.987Z,26.01
2022-08-19T22:06:07.377Z,27.08
2022-08-19T22:08:36.168Z,28.02
2022-08-19T22:11:04.432Z,28.38
2022-08-19T22:13:39.926Z,27.95
2022-08-19T22:16:10.211Z,27.42
2022-08-19T22:18:41.551Z,27.02
2022-08-19T22:21:12.183Z,26.73
2022-08-19T22:23:42.221Z,26.50
2022-08-19T22:26:11.587Z,26.32
2022-08-19T22:28:40.384Z,26.18
2022-08-19T22:31:09.780Z,26.06
2022-08-19T22:33:39.211Z,25.93
2022-08-19T22:36:07.772Z,25.79
2022-08-19T22:38:38.371Z,25.90
2022-08-19T22:41:08.041Z,26.90
2022-08-19T22:43:37.603Z,27.80
2022-08-19T22:46:17.062Z,28.17
2022-08-19T22:48:47.170Z,27.72
2022-08-19T22:51:34.823Z,27.23
2022-08-19T22:54:04.094Z,26.82
2022-08-19T22:56:32.116Z,26.55
2022-08-19T22:59:00.226Z,26.32
2022-08-19T23:01:30.313Z,26.13
2022-08-19T23:03:59.914Z,25.95
2022-08-19T23:06:31.236Z,25.81
2022-08-19T23:09:05.362Z,25.67
2022-08-19T23:11:38.142Z,25.81
2022-08-19T23:14:12.794Z,26.88
2022-08-19T23:16:50.507Z,27.70
2022-08-19T23:19:20.126Z,27.99
2022-08-19T23:21:49.038Z,27.49
2022-08-19T23:24:17.292Z,26.92
2022-08-19T23:27:05.468Z,26.50
2022-08-19T23:29:52.192Z,26.15
2022-08-19T23:32:25.725Z,25.86
2022-08-19T23:34:55.958Z,25.66
2022-08-19T23:37:25.673Z,25.78
2022-08-19T23:39:54.306Z,26.86
2022-08-19T23:42:26.173Z,27.72
2022-08-19T23:45:02.431Z,28.06
2022-08-19T23:47:32.449Z,27.50
2022-08-19T23:50:05.969Z,26.91
2022-08-19T23:52:42.188Z,26.45
2022-08-19T23:55:10.692Z,26.10
2022-08-19T23:57:38.707Z,25.84
